Tasso Fragoso, Brazil
Current Conditions -  °F | °C
As of 6:00 PM on Wednesday 22 Oct 2014 (Local Time) from SBCI Reporting Station
Scattered Clouds Scattered Clouds  
Wind Chill: 82°   Ceiling: Unl
Heat Index: 87°   Visibility: 6mi
Dew Point: 72°   Wind: 2mph
Humidity: 70%   Direction: 40°NE
Pressure: 29.85"   Gusts: NA
Location:  8.48°S, 45.74°W
Report Text: SBCI 222100Z 04002KT 9999 FEW020 SCT100 28/22 Q1011
Loading
Personal Weather Stations






























Interactive Weather Map
Tropical Storm Tracking
New forecast layout! Learn more

10-Day Weather Forecast

Advertisements
Track Severe Weather on mobile